Time;durP1;ratioP1;P1;durP2;ratioP2;P2;SDS_P1;SDS_P2;PMS_P1;PMS_P2;Temp;Humidity;BMP_temperature;BMP_pressure;BME280_temperature;BME280_humidity;BME280_pressure;Samples;Min_cycle;Max_cycle;Signal;HPM_P1;HPM_P2
2021/12/02 00:01:19;;;;;;;4.15;0.90;;;3.80;99.90;;;;;;5045454;28;20052;-80
2021/12/02 00:03:46;;;;;;;4.15;0.30;;;3.80;99.90;;;;;;5070583;28;20086;-81
2021/12/02 00:06:15;;;;;;;4.67;0.50;;;3.80;99.90;;;;;;5063476;28;20036;-80
2021/12/02 00:08:42;;;;;;;3.58;0.30;;;3.70;99.90;;;;;;5081365;28;20032;-80
2021/12/02 00:11:07;;;;;;;6.15;0.30;;;3.70;99.90;;;;;;5064300;28;20040;-81
2021/12/02 00:14:22;;;;;;;2.83;0.75;;;3.60;99.90;;;;;;5080778;28;20380;-81
2021/12/02 00:16:33;;;;;;;4.03;1.33;;;3.60;99.90;;;;;;5070120;28;20455;-81
2021/12/02 00:21:50;;;;;;;6.37;0.37;;;3.50;99.90;;;;;;5081613;28;20037;-81
2021/12/02 00:24:19;;;;;;;3.90;0.33;;;3.50;99.90;;;;;;5063702;28;20472;-81
2021/12/02 00:26:46;;;;;;;6.40;1.05;;;3.50;99.90;;;;;;5095572;28;20123;-81
2021/12/02 00:29:15;;;;;;;6.70;1.37;;;3.60;99.90;;;;;;5063412;28;20044;-81
2021/12/02 03:58:08;;;;;;;3.30;0.70;;;2.80;99.90;;;;;;5086131;28;20052;-82
2021/12/02 04:00:34;;;;;;;1.83;0.13;;;2.80;99.90;;;;;;5086657;28;20048;-82
2021/12/02 04:02:59;;;;;;;1.53;0.13;;;2.70;99.90;;;;;;5070252;28;20407;-82
2021/12/02 04:05:25;;;;;;;1.07;0.00;;;2.70;99.90;;;;;;5087016;28;20122;-82
2021/12/02 04:07:51;;;;;;;0.97;0.10;;;2.70;99.90;;;;;;5069012;28;20068;-82
2021/12/02 04:10:17;;;;;;;7.17;0.60;;;2.60;99.90;;;;;;5085071;28;20070;-82
2021/12/02 04:12:56;;;;;;;1.50;0.10;;;2.50;99.90;;;;;;5101890;28;20076;-82
2021/12/02 04:15:25;;;;;;;0.53;0.10;;;2.50;99.90;;;;;;5068487;28;20045;-82
2021/12/02 04:17:51;;;;;;;0.70;0.20;;;2.50;99.90;;;;;;5100650;28;20092;-82
2021/12/02 04:20:20;;;;;;;1.30;0.10;;;2.40;99.90;;;;;;5084980;28;20048;-82
2021/12/02 04:22:46;;;;;;;2.03;0.63;;;2.40;99.90;;;;;;5084592;28;20036;-83
2021/12/02 04:25:13;;;;;;;2.57;0.10;;;2.40;99.90;;;;;;5066609;28;20059;-82
2021/12/02 04:27:39;;;;;;;2.50;0.20;;;2.40;99.90;;;;;;5082401;28;20167;-81
2021/12/02 04:30:10;;;;;;;3.17;0.10;;;2.30;99.90;;;;;;5091508;28;20036;-81
2021/12/02 04:32:36;;;;;;;1.00;0.40;;;2.30;99.90;;;;;;5083770;28;20045;-82
2021/12/02 04:35:04;;;;;;;2.63;1.03;;;2.30;99.90;;;;;;5085865;28;20385;-82
2021/12/02 04:37:29;;;;;;;5.10;0.57;;;2.30;99.90;;;;;;5085468;28;20040;-82
2021/12/02 04:39:56;;;;;;;2.23;0.30;;;2.30;99.90;;;;;;5069825;28;20049;-82
2021/12/02 04:42:21;;;;;;;2.00;0.27;;;2.30;99.90;;;;;;5087383;28;20306;-82
2021/12/02 04:44:47;;;;;;;3.10;0.20;;;2.30;99.90;;;;;;5086996;28;20051;-81
2021/12/02 04:47:12;;;;;;;4.07;0.30;;;2.30;99.90;;;;;;5085816;28;20041;-82
2021/12/02 04:49:38;;;;;;;3.23;0.37;;;2.30;99.90;;;;;;5085645;28;20396;-82
2021/12/02 04:52:04;;;;;;;1.67;0.60;;;2.20;99.90;;;;;;5085199;28;20102;-82
2021/12/02 04:54:30;;;;;;;6.33;0.60;;;2.20;99.90;;;;;;5084144;28;20377;-81
2021/12/02 04:56:55;;;;;;;3.00;1.03;;;2.10;99.90;;;;;;5083420;28;20072;-82
2021/12/02 04:59:21;;;;;;;1.67;0.47;;;2.10;99.90;;;;;;5084181;28;20044;-82
2021/12/02 05:01:46;;;;;;;4.80;0.97;;;2.00;99.90;;;;;;5083884;28;20037;-82
2021/12/02 05:04:12;;;;;;;1.13;0.23;;;2.00;99.90;;;;;;5068098;28;20041;-81
2021/12/02 05:06:38;;;;;;;2.93;0.70;;;1.90;99.90;;;;;;5069880;28;20036;-81
2021/12/02 05:09:04;;;;;;;3.33;0.30;;;1.80;99.90;;;;;;5088066;28;20044;-80
2021/12/02 05:11:29;;;;;;;4.47;0.30;;;1.80;99.90;;;;;;5090221;28;20043;-81
2021/12/02 05:13:55;;;;;;;3.70;0.63;;;1.80;99.90;;;;;;5087971;28;20048;-80
2021/12/02 05:16:20;;;;;;;3.80;0.20;;;1.80;99.90;;;;;;5089451;28;20037;-81
2021/12/02 05:18:46;;;;;;;3.57;0.20;;;1.90;99.90;;;;;;5072716;28;20180;-81
2021/12/02 05:21:12;;;;;;;2.90;0.43;;;2.00;99.90;;;;;;5092042;28;20041;-81
2021/12/02 05:23:39;;;;;;;3.73;0.30;;;2.00;99.90;;;;;;5108531;28;20044;-81
2021/12/02 05:26:05;;;;;;;1.30;0.20;;;2.00;99.90;;;;;;5092424;28;20043;-81
2021/12/02 05:28:30;;;;;;;1.60;0.20;;;1.90;99.90;;;;;;5090387;28;20041;-81
2021/12/02 05:30:56;;;;;;;4.07;0.57;;;1.90;99.90;;;;;;5074432;28;20075;-81
2021/12/02 05:33:22;;;;;;;1.87;0.20;;;2.00;99.90;;;;;;5074196;28;20035;-81
2021/12/02 05:35:47;;;;;;;2.73;1.43;;;2.00;99.90;;;;;;5093567;28;20098;-80
2021/12/02 05:38:13;;;;;;;3.03;0.50;;;2.00;99.90;;;;;;5090403;28;20041;-80
2021/12/02 05:40:39;;;;;;;7.00;0.87;;;2.00;99.90;;;;;;5090885;28;20043;-80
2021/12/02 05:43:05;;;;;;;1.93;0.40;;;2.00;99.90;;;;;;5107495;28;20102;-80
2021/12/02 05:45:31;;;;;;;1.73;0.50;;;2.00;99.90;;;;;;5073431;28;20036;-81
2021/12/02 05:47:57;;;;;;;3.20;0.60;;;2.10;99.90;;;;;;5090252;28;20347;-80
2021/12/02 05:50:23;;;;;;;4.43;0.50;;;2.10;99.90;;;;;;5104379;28;20037;-81
2021/12/02 05:52:48;;;;;;;1.50;0.40;;;2.10;99.90;;;;;;5085583;28;20033;-80
2021/12/02 05:55:14;;;;;;;2.77;0.50;;;2.10;99.90;;;;;;5083883;28;20036;-79
2021/12/02 05:57:40;;;;;;;1.80;0.40;;;2.00;99.90;;;;;;5086346;28;20071;-80
2021/12/02 06:00:07;;;;;;;1.67;0.30;;;2.00;99.90;;;;;;5087768;28;20036;-80
2021/12/02 06:02:36;;;;;;;1.57;0.40;;;2.00;99.90;;;;;;5086940;28;20073;-80
2021/12/02 06:05:02;;;;;;;2.40;0.60;;;1.90;99.90;;;;;;5103908;28;20048;-81
2021/12/02 06:07:28;;;;;;;2.50;0.60;;;2.00;99.90;;;;;;5103330;28;20047;-80
2021/12/02 06:09:54;;;;;;;2.43;0.70;;;2.00;99.90;;;;;;5087400;28;20044;-80
2021/12/02 06:12:19;;;;;;;4.20;0.37;;;2.10;99.90;;;;;;5087816;28;20032;-80
2021/12/02 06:14:45;;;;;;;3.43;0.83;;;2.10;99.90;;;;;;5086042;28;20037;-79
2021/12/02 06:17:11;;;;;;;4.60;0.70;;;2.10;99.90;;;;;;5085119;28;20036;-79
2021/12/02 06:19:36;;;;;;;1.20;0.40;;;2.20;99.90;;;;;;5084576;28;20047;-79
2021/12/02 06:22:03;;;;;;;2.93;0.33;;;2.20;99.90;;;;;;5083779;28;20115;-79
2021/12/02 06:24:41;;;;;;;2.63;0.50;;;2.10;99.90;;;;;;5085109;28;20049;-79
2021/12/02 06:27:07;;;;;;;2.77;0.40;;;2.10;99.90;;;;;;5082999;28;20040;-79
2021/12/02 06:29:32;;;;;;;2.80;0.33;;;2.00;99.90;;;;;;5098043;28;20036;-79
2021/12/02 06:31:58;;;;;;;1.17;0.30;;;1.90;99.90;;;;;;5081776;28;20041;-79
2021/12/02 06:34:23;;;;;;;2.77;0.87;;;1.70;99.90;;;;;;5075494;28;20492;-78
2021/12/02 06:36:49;;;;;;;1.97;0.20;;;1.60;99.90;;;;;;5076598;28;20060;-78
2021/12/02 06:39:15;;;;;;;1.37;0.20;;;1.50;99.90;;;;;;5058637;28;20036;-79
2021/12/02 06:41:40;;;;;;;1.20;0.20;;;1.40;99.90;;;;;;5076946;28;20048;-78
2021/12/02 06:44:06;;;;;;;3.57;0.20;;;1.30;99.90;;;;;;5077381;28;20049;-78
2021/12/02 06:46:31;;;;;;;2.67;0.20;;;1.30;99.90;;;;;;5093781;28;20555;-79
2021/12/02 06:48:57;;;;;;;1.20;0.20;;;1.30;99.90;;;;;;5093656;28;20106;-79
2021/12/02 06:51:22;;;;;;;4.33;0.20;;;1.20;99.90;;;;;;5059704;28;20040;-79
2021/12/02 06:53:49;;;;;;;1.60;0.57;;;1.20;99.90;;;;;;5092070;28;20132;-78
2021/12/02 06:56:15;;;;;;;2.03;0.20;;;1.20;99.90;;;;;;5090368;28;20109;-78
2021/12/02 06:58:40;;;;;;;1.40;0.47;;;1.20;99.90;;;;;;5057257;28;20041;-78
2021/12/02 07:01:06;;;;;;;3.27;0.30;;;1.10;99.90;;;;;;5091117;28;20515;-78
2021/12/02 07:03:31;;;;;;;0.80;0.30;;;1.10;99.90;;;;;;5073922;28;20039;-78
2021/12/02 07:05:57;;;;;;;1.97;0.20;;;1.20;99.90;;;;;;5038985;28;20080;-78
2021/12/02 07:08:23;;;;;;;3.40;0.50;;;1.20;99.90;;;;;;5037237;28;20037;-78
2021/12/02 07:10:50;;;;;;;3.97;0.40;;;1.20;99.90;;;;;;5054106;28;20052;-78
2021/12/02 07:13:16;;;;;;;5.33;1.77;;;1.20;99.90;;;;;;5037168;28;20060;-78
2021/12/02 07:15:50;;;;;;;2.90;0.30;;;1.20;99.90;;;;;;5053798;28;20045;-78
2021/12/02 07:18:16;;;;;;;1.73;0.20;;;1.20;99.90;;;;;;5058233;28;20037;-79
2021/12/02 07:20:43;;;;;;;2.37;0.30;;;1.20;99.90;;;;;;5091653;28;20066;-78
2021/12/02 07:23:09;;;;;;;1.87;0.17;;;1.30;99.90;;;;;;5092028;28;20365;-78
2021/12/02 07:25:35;;;;;;;1.07;0.20;;;1.20;99.90;;;;;;5058568;28;20032;-78
2021/12/02 07:28:02;;;;;;;1.03;0.20;;;1.20;99.90;;;;;;5091598;28;20036;-78
2021/12/02 07:30:27;;;;;;;2.20;0.30;;;1.30;99.90;;;;;;5058098;28;20041;-78
2021/12/02 07:32:58;;;;;;;2.93;0.50;;;1.20;99.90;;;;;;5074368;28;20503;-78
2021/12/02 07:35:24;;;;;;;3.50;0.67;;;1.20;99.90;;;;;;5076599;28;20040;-78
2021/12/02 07:37:56;;;;;;;0.97;0.30;;;1.10;99.90;;;;;;5077077;28;20039;-78
2021/12/02 07:40:25;;;;;;;1.10;0.50;;;1.10;99.90;;;;;;5061222;28;20072;-78
2021/12/02 07:42:52;;;;;;;1.70;0.50;;;1.10;99.90;;;;;;5061944;28;20118;-79
2021/12/02 07:45:19;;;;;;;1.40;0.50;;;1.10;99.90;;;;;;5078993;28;20036;-78
2021/12/02 07:47:45;;;;;;;1.90;0.40;;;1.10;99.90;;;;;;5063058;28;20083;-79
2021/12/02 07:50:13;;;;;;;1.53;0.50;;;1.10;99.90;;;;;;5058488;28;20052;-79
2021/12/02 07:52:45;;;;;;;2.40;0.80;;;1.20;99.90;;;;;;5060892;28;20045;-79
2021/12/02 07:55:13;;;;;;;5.17;2.00;;;1.20;99.90;;;;;;5043606;28;20036;-79
2021/12/02 07:57:42;;;;;;;3.63;1.23;;;1.20;99.90;;;;;;5060090;28;20101;-79
2021/12/02 08:00:08;;;;;;;2.40;0.67;;;1.20;99.90;;;;;;5060948;28;20060;-79
2021/12/02 08:02:35;;;;;;;4.03;0.77;;;1.30;99.90;;;;;;5046179;28;20499;-79
2021/12/02 08:05:01;;;;;;;2.17;0.53;;;1.30;99.90;;;;;;5062302;28;20056;-80
2021/12/02 08:07:27;;;;;;;5.33;0.87;;;1.30;99.90;;;;;;5061651;28;20041;-80
2021/12/02 08:09:53;;;;;;;7.73;1.03;;;1.30;99.90;;;;;;5078732;28;20182;-79
2021/12/02 08:12:18;;;;;;;2.20;0.80;;;1.40;99.90;;;;;;5085887;28;20411;-79
2021/12/02 08:14:44;;;;;;;4.97;0.83;;;1.40;99.90;;;;;;5101045;28;20040;-79
2021/12/02 08:17:09;;;;;;;4.60;1.37;;;1.40;99.90;;;;;;5109877;28;20032;-80
2021/12/02 08:19:35;;;;;;;2.97;0.77;;;1.40;99.90;;;;;;5077485;28;20120;-78
2021/12/02 08:22:01;;;;;;;4.20;1.37;;;1.40;99.90;;;;;;5096199;28;20125;-77
2021/12/02 08:24:27;;;;;;;3.53;1.53;;;1.40;99.90;;;;;;5077328;28;20044;-78
2021/12/02 08:26:53;;;;;;;9.17;2.33;;;1.40;99.90;;;;;;5094104;28;20039;-79
2021/12/02 08:29:22;;;;;;;7.23;2.67;;;1.50;99.90;;;;;;5079018;28;20049;-79
2021/12/02 08:31:48;;;;;;;6.47;2.53;;;1.50;99.90;;;;;;5095191;28;20036;-79
2021/12/02 08:34:16;;;;;;;4.57;2.00;;;1.60;99.90;;;;;;5094739;28;20118;-79
2021/12/02 08:36:49;;;;;;;4.57;2.13;;;1.60;99.90;;;;;;5086917;28;20044;-79
2021/12/02 08:39:22;;;;;;;5.60;2.00;;;1.80;99.90;;;;;;5066660;28;20119;-79
2021/12/02 08:41:49;;;;;;;4.50;2.37;;;1.80;99.90;;;;;;5084088;28;20060;-79
2021/12/02 08:44:18;;;;;;;4.13;1.80;;;1.80;99.90;;;;;;5084575;28;20090;-79
2021/12/02 08:46:47;;;;;;;2.70;1.77;;;1.80;99.90;;;;;;5084426;28;20033;-79
2021/12/02 08:49:13;;;;;;;3.93;2.20;;;1.80;99.90;;;;;;5084731;28;20047;-79
2021/12/02 08:51:39;;;;;;;5.20;2.20;;;1.80;99.90;;;;;;5082456;28;20040;-80
2021/12/02 08:54:05;;;;;;;4.10;1.97;;;1.70;99.90;;;;;;5083348;28;20037;-79
2021/12/02 08:56:31;;;;;;;3.53;2.33;;;1.80;99.90;;;;;;5098710;28;20060;-79
2021/12/02 08:58:56;;;;;;;4.63;2.47;;;1.80;99.90;;;;;;5079840;28;20037;-80
2021/12/02 09:01:22;;;;;;;4.73;2.10;;;1.90;99.90;;;;;;5098004;28;20037;-80
2021/12/02 09:03:48;;;;;;;6.03;2.77;;;1.90;99.90;;;;;;5095932;28;20094;-80
2021/12/02 09:06:14;;;;;;;4.20;2.10;;;2.00;99.90;;;;;;5060298;28;20032;-80
2021/12/02 09:08:40;;;;;;;3.93;1.43;;;2.00;99.90;;;;;;5060186;28;20052;-80
2021/12/02 09:11:06;;;;;;;4.90;2.30;;;2.00;99.90;;;;;;5060026;28;20037;-80
2021/12/02 09:13:32;;;;;;;4.70;2.20;;;2.00;99.90;;;;;;5059855;28;20098;-80
2021/12/02 09:15:58;;;;;;;3.70;1.97;;;2.10;99.90;;;;;;5060202;28;20037;-80
2021/12/02 09:18:24;;;;;;;2.93;1.40;;;2.10;99.90;;;;;;5043929;28;20033;-80
2021/12/02 09:20:50;;;;;;;2.93;1.87;;;2.20;99.90;;;;;;5048587;28;20041;-80
2021/12/02 09:23:15;;;;;;;4.50;1.63;;;2.20;99.90;;;;;;5048003;28;20037;-80
2021/12/02 09:25:42;;;;;;;4.77;1.50;;;2.30;99.90;;;;;;5083064;28;20515;-80
2021/12/02 09:28:10;;;;;;;2.53;1.53;;;2.40;99.90;;;;;;5085684;28;20064;-80
2021/12/02 09:30:36;;;;;;;3.47;1.47;;;2.50;99.90;;;;;;5082148;28;20037;-81
2021/12/02 09:33:02;;;;;;;5.67;1.60;;;2.60;99.90;;;;;;5100088;28;20044;-81
2021/12/02 09:35:28;;;;;;;4.70;1.60;;;2.70;99.90;;;;;;5082375;28;20119;-80
2021/12/02 09:37:54;;;;;;;2.80;0.97;;;2.70;99.90;;;;;;5064684;28;20462;-81
2021/12/02 09:40:19;;;;;;;5.20;1.60;;;2.80;99.90;;;;;;5064721;28;20039;-81
2021/12/02 09:42:45;;;;;;;3.13;1.27;;;2.90;99.90;;;;;;5065219;28;20036;-81
2021/12/02 09:45:12;;;;;;;1.77;0.93;;;2.90;99.90;;;;;;5097598;28;20058;-81
2021/12/02 09:47:40;;;;;;;4.57;0.87;;;3.00;99.90;;;;;;5097821;28;20083;-81
2021/12/02 09:50:12;;;;;;;2.37;0.57;;;3.00;99.90;;;;;;5098226;28;20040;-81
2021/12/02 09:52:40;;;;;;;2.07;0.60;;;3.10;99.90;;;;;;5048308;28;20420;-81
2021/12/02 09:55:17;;;;;;;2.90;0.73;;;3.20;99.90;;;;;;5098845;28;20445;-81
2021/12/02 09:57:47;;;;;;;1.70;0.60;;;3.20;99.90;;;;;;5064157;28;20040;-80
2021/12/02 10:00:21;;;;;;;1.27;0.52;;;3.30;99.90;;;;;;5099054;28;20119;-81
2021/12/02 10:02:58;;;;;;;1.27;0.40;;;3.30;99.90;;;;;;5098617;28;20060;-79
2021/12/02 10:05:44;;;;;;;0.98;0.20;;;3.30;99.90;;;;;;5066869;28;20028;-79
2021/12/02 10:08:19;;;;;;;3.63;0.43;;;3.40;99.90;;;;;;5067027;28;20047;-79
2021/12/02 10:10:56;;;;;;;2.92;0.55;;;3.30;99.90;;;;;;5082588;28;20381;-79
2021/12/02 10:13:29;;;;;;;2.47;0.30;;;3.40;99.90;;;;;;5065866;28;20033;-79
2021/12/02 10:16:28;;;;;;;3.00;0.40;;;3.30;99.90;;;;;;5082853;28;20044;-79
2021/12/02 10:19:38;;;;;;;1.75;0.30;;;3.40;99.90;;;;;;5065663;28;20187;-79
2021/12/02 10:21:55;;;;;;;1.83;0.30;;;3.30;99.90;;;;;;5074192;28;20048;-79
2021/12/02 10:24:28;;;;;;;1.27;0.38;;;3.40;99.90;;;;;;5100030;28;20492;-82
2021/12/02 10:26:59;;;;;;;3.17;0.52;;;3.40;99.90;;;;;;5066524;28;20267;-79
2021/12/02 10:29:28;;;;;;;1.98;0.50;;;3.50;99.90;;;;;;5066265;28;20062;-79
2021/12/02 10:32:25;;;;;;;2.03;0.47;;;3.40;99.90;;;;;;5063852;28;20127;-79
2021/12/02 10:34:54;;;;;;;2.10;0.40;;;3.40;99.90;;;;;;5098601;28;20121;-80
2021/12/02 10:37:23;;;;;;;2.90;0.52;;;3.30;99.90;;;;;;5098244;28;20051;-80
2021/12/02 10:40:14;;;;;;;1.65;0.30;;;3.20;99.90;;;;;;5097742;28;20087;-79
2021/12/02 10:42:43;;;;;;;0.97;0.30;;;3.10;99.90;;;;;;5098335;28;20424;-79
2021/12/02 10:45:32;;;;;;;4.70;0.60;;;2.90;99.90;;;;;;5099450;28;20397;-79
2021/12/02 10:47:58;;;;;;;5.07;0.70;;;2.80;99.90;;;;;;5067322;28;20111;-79
2021/12/02 10:50:26;;;;;;;2.70;0.80;;;2.80;99.90;;;;;;5085720;28;20041;-81
2021/12/02 10:52:52;;;;;;;1.50;0.20;;;2.70;99.90;;;;;;5097960;28;20511;-80
2021/12/02 10:55:22;;;;;;;0.93;0.20;;;2.50;99.90;;;;;;5100067;28;20040;-80
2021/12/02 10:57:52;;;;;;;2.60;0.97;;;2.50;99.90;;;;;;5099746;28;20040;-80
2021/12/02 11:00:25;;;;;;;1.63;0.17;;;2.40;99.90;;;;;;5084845;28;20036;-80
2021/12/02 11:02:54;;;;;;;0.70;0.00;;;2.40;99.90;;;;;;5085304;28;20114;-80
2021/12/02 11:05:29;;;;;;;1.23;0.03;;;2.30;99.90;;;;;;5100672;28;20067;-79
2021/12/02 11:08:03;;;;;;;2.67;0.00;;;2.40;99.90;;;;;;5086199;28;20041;-80
2021/12/02 11:10:37;;;;;;;2.22;0.17;;;2.50;99.90;;;;;;5085949;28;20049;-80
2021/12/02 11:13:04;;;;;;;1.73;0.10;;;2.40;99.90;;;;;;5086440;28;20044;-80
2021/12/02 11:15:31;;;;;;;3.17;0.50;;;2.50;99.90;;;;;;5068714;28;20036;-80
2021/12/02 11:18:03;;;;;;;3.63;0.50;;;2.60;99.90;;;;;;5068092;28;20055;-80
2021/12/02 11:20:30;;;;;;;4.20;1.83;;;2.60;99.90;;;;;;5087610;28;20037;-80
2021/12/02 11:23:00;;;;;;;18.83;11.13;;;2.70;99.90;;;;;;5084830;28;20537;-80
2021/12/02 11:25:26;;;;;;;9.13;5.07;;;2.70;99.90;;;;;;5067311;28;20055;-80
2021/12/02 11:27:53;;;;;;;2.77;0.97;;;2.70;99.90;;;;;;5085722;28;20067;-80
2021/12/02 11:30:24;;;;;;;0.77;0.20;;;2.70;99.90;;;;;;5102845;28;20090;-80
2021/12/02 11:32:58;;;;;;;3.70;0.10;;;2.70;99.90;;;;;;5082954;28;20036;-80
2021/12/02 11:35:28;;;;;;;0.80;0.17;;;2.70;99.90;;;;;;5082657;28;20028;-80
2021/12/02 11:37:59;;;;;;;0.53;0.10;;;2.60;99.90;;;;;;5083446;28;20115;-80
2021/12/02 11:40:32;;;;;;;0.80;0.20;;;2.60;99.90;;;;;;5070239;28;20037;-80
2021/12/02 11:42:58;;;;;;;0.70;0.10;;;2.60;99.90;;;;;;5044324;28;20083;-80
2021/12/02 11:45:26;;;;;;;0.60;0.10;;;2.60;99.90;;;;;;5080426;28;20459;-80
2021/12/02 11:47:53;;;;;;;1.07;0.20;;;2.50;99.90;;;;;;5064189;28;20033;-80
2021/12/02 11:50:21;;;;;;;0.60;0.10;;;2.40;99.90;;;;;;5076986;28;20111;-81
2021/12/02 11:52:47;;;;;;;1.07;0.10;;;2.40;99.90;;;;;;5063759;28;20048;-81
2021/12/02 11:55:16;;;;;;;1.70;0.10;;;2.40;99.90;;;;;;5062261;28;20104;-81
2021/12/02 11:57:42;;;;;;;4.70;1.47;;;2.30;99.90;;;;;;5065016;28;20037;-81
2021/12/02 12:00:14;;;;;;;7.43;2.60;;;2.40;99.90;;;;;;5080411;28;20040;-80
2021/12/02 12:02:48;;;;;;;3.17;1.37;;;2.30;99.90;;;;;;5105748;28;20040;-81
2021/12/02 12:05:15;;;;;;;2.83;1.27;;;2.40;99.90;;;;;;5085281;28;20071;-81
2021/12/02 12:07:47;;;;;;;8.93;5.83;;;2.40;99.90;;;;;;5066184;28;20094;-80
2021/12/02 12:10:29;;;;;;;15.87;10.13;;;2.50;99.90;;;;;;5066769;28;20354;-81
2021/12/02 12:13:28;;;;;;;9.17;5.17;;;2.70;99.90;;;;;;5083520;28;20059;-81
2021/12/02 12:15:58;;;;;;;2.30;1.17;;;2.90;99.90;;;;;;5099085;28;20071;-81
2021/12/02 12:18:26;;;;;;;19.00;10.33;;;3.10;99.90;;;;;;5081959;28;20089;-82
2021/12/02 12:20:55;;;;;;;7.37;4.17;;;3.20;99.90;;;;;;5080462;28;20028;-82
2021/12/02 12:23:41;;;;;;;8.40;4.57;;;3.20;99.90;;;;;;5095787;28;20464;-82
2021/12/02 12:26:20;;;;;;;10.55;5.68;;;3.20;99.90;;;;;;5094706;28;20110;-82
2021/12/02 12:29:15;;;;;;;8.20;4.70;;;3.20;99.90;;;;;;5062120;28;20044;-82
2021/12/02 12:31:54;;;;;;;6.55;4.43;;;3.10;99.90;;;;;;5056195;28;20194;-82
2021/12/02 12:36:55;;;;;;;13.60;7.38;;;3.10;99.90;;;;;;5080567;28;20080;-80
2021/12/02 12:39:24;;;;;;;18.05;11.15;;;3.00;99.90;;;;;;5076881;28;20037;-81
2021/12/02 12:42:10;;;;;;;13.82;10.25;;;3.00;99.90;;;;;;5061877;28;20056;-81
2021/12/02 12:44:53;;;;;;;10.90;8.53;;;3.00;99.90;;;;;;5062892;28;20041;-80
2021/12/02 12:47:39;;;;;;;5.03;2.17;;;2.90;99.90;;;;;;5099257;28;20463;-80
2021/12/02 12:50:24;;;;;;;3.30;0.93;;;2.80;99.90;;;;;;5097905;28;20067;-80
2021/12/02 12:53:15;;;;;;;1.23;0.60;;;2.60;99.90;;;;;;5097418;28;20488;-81
2021/12/02 12:56:01;;;;;;;2.40;2.10;;;2.40;99.90;;;;;;5058465;28;20064;-80
2021/12/02 12:58:32;;;;;;;2.38;2.17;;;2.30;99.90;;;;;;5068650;28;20044;-79
2021/12/02 13:01:18;;;;;;;0.73;0.30;;;2.20;99.90;;;;;;5068353;28;20045;-80
2021/12/02 13:03:44;;;;;;;;;;;2.20;99.90;;;;;;5102707;28;20096;-80
2021/12/02 13:06:22;;;;;;;0.30;0.10;;;2.10;99.90;;;;;;5084280;28;19916;-81
2021/12/02 13:08:57;;;;;;;0.30;0.10;;;2.00;99.90;;;;;;5098746;28;20033;-81
2021/12/02 13:11:33;;;;;;;0.90;0.10;;;2.00;99.90;;;;;;5096966;28;20062;-81
2021/12/02 13:14:00;;;;;;;0.30;0.00;;;2.00;99.90;;;;;;5067369;28;20761;-80
2021/12/02 13:16:34;;;;;;;0.33;0.00;;;2.00;99.90;;;;;;5065731;28;20040;-80
2021/12/02 13:19:14;;;;;;;0.40;0.03;;;1.90;99.90;;;;;;5080919;28;20045;-81
2021/12/02 13:21:41;;;;;;;0.43;0.10;;;1.90;99.90;;;;;;5097176;28;20288;-81
2021/12/02 13:24:19;;;;;;;1.73;0.10;;;1.90;99.90;;;;;;5099812;28;20044;-81
2021/12/02 13:27:01;;;;;;;0.30;0.00;;;1.90;99.90;;;;;;5101882;28;20074;-80
2021/12/02 13:29:30;;;;;;;0.40;0.10;;;1.90;99.90;;;;;;5086446;28;20080;-81
2021/12/02 13:31:58;;;;;;;0.40;0.10;;;1.90;99.90;;;;;;5104647;28;20048;-80
2021/12/02 13:34:25;;;;;;;0.53;0.10;;;1.80;99.90;;;;;;5102774;28;20044;-81
2021/12/02 13:36:58;;;;;;;0.50;0.10;;;1.80;99.90;;;;;;5103534;28;20033;-80
2021/12/02 13:39:27;;;;;;;1.03;0.10;;;1.80;99.90;;;;;;5103347;28;20381;-79
2021/12/02 13:42:00;;;;;;;0.60;0.10;;;1.70;99.90;;;;;;5076810;28;20041;-80
2021/12/02 13:44:52;;;;;;;1.23;0.40;;;1.80;99.90;;;;;;5109550;28;20353;-78
2021/12/02 13:47:32;;;;;;;1.27;0.20;;;1.90;99.90;;;;;;5072061;28;20051;-80
2021/12/02 13:50:00;;;;;;;1.00;0.20;;;1.90;99.90;;;;;;5105502;28;20044;-81
2021/12/02 13:52:41;;;;;;;1.07;0.10;;;2.00;99.90;;;;;;5071588;28;20036;-81
2021/12/02 13:55:14;;;;;;;1.70;0.53;;;2.10;99.90;;;;;;5105610;28;20037;-81
2021/12/02 13:57:44;;;;;;;0.60;0.13;;;2.20;99.90;;;;;;5104777;28;20033;-80
2021/12/02 14:00:14;;;;;;;0.50;0.10;;;2.30;99.90;;;;;;5106195;28;20032;-81
2021/12/02 14:02:41;;;;;;;1.37;0.10;;;2.50;99.90;;;;;;5105317;28;20056;-81
2021/12/02 14:05:11;;;;;;;0.37;0.10;;;2.70;99.90;;;;;;5104889;28;20044;-81
2021/12/02 14:07:38;;;;;;;0.35;0.10;;;2.60;99.90;;;;;;5104153;28;20055;-81
2021/12/02 14:10:11;;;;;;;0.67;0.20;;;2.50;99.90;;;;;;5067761;28;20055;-79
2021/12/02 14:12:45;;;;;;;0.90;0.10;;;2.40;99.90;;;;;;5102296;28;20053;-82
2021/12/02 14:15:17;;;;;;;1.60;1.27;;;2.40;99.90;;;;;;5103298;28;20053;-81
2021/12/02 14:17:59;;;;;;;0.20;0.00;;;2.30;99.90;;;;;;5112725;28;20032;-78
2021/12/02 14:20:35;;;;;;;0.50;0.20;;;2.20;99.90;;;;;;5114893;28;20044;-78
2021/12/02 14:23:04;;;;;;;0.60;0.30;;;2.10;99.90;;;;;;5098215;28;20020;-78
2021/12/02 14:25:32;;;;;;;0.50;0.20;;;2.00;99.90;;;;;;5115312;28;20048;-79
2021/12/02 14:28:15;;;;;;;0.80;0.20;;;1.90;99.90;;;;;;5080907;28;20056;-77
2021/12/02 14:30:45;;;;;;;0.80;0.20;;;1.90;99.90;;;;;;5114479;28;20029;-77
2021/12/02 14:33:13;;;;;;;3.57;1.13;;;1.80;99.90;;;;;;5081503;28;20051;-78
2021/12/02 14:35:45;;;;;;;1.27;0.10;;;1.80;99.90;;;;;;5092941;28;20062;-79
2021/12/02 14:38:21;;;;;;;0.80;0.20;;;1.70;99.90;;;;;;5070217;28;20223;-80
2021/12/02 14:40:48;;;;;;;1.87;0.20;;;1.70;99.90;;;;;;5086498;28;20106;-80
2021/12/02 14:43:25;;;;;;;1.27;0.20;;;1.60;99.90;;;;;;5084730;28;20586;-81
2021/12/02 14:46:10;;;;;;;0.70;0.10;;;1.50;99.90;;;;;;5084604;28;20119;-80
2021/12/02 14:48:36;;;;;;;0.80;0.10;;;1.50;99.90;;;;;;5055612;28;20055;-80
2021/12/02 14:51:11;;;;;;;0.77;0.20;;;1.40;99.90;;;;;;5084121;28;20036;-79
2021/12/02 14:53:44;;;;;;;1.25;0.50;;;1.30;99.90;;;;;;5066140;28;20045;-81
2021/12/02 14:56:31;;;;;;;3.67;2.87;;;1.30;99.90;;;;;;5066038;28;20092;-81
2021/12/02 14:59:14;;;;;;;1.10;0.50;;;1.20;99.90;;;;;;5094470;28;20480;-80
2021/12/02 15:01:58;;;;;;;2.37;0.70;;;1.20;99.90;;;;;;5064414;28;20037;-81
2021/12/02 15:04:26;;;;;;;3.63;0.73;;;1.10;99.90;;;;;;5083350;28;20044;-81
2021/12/02 15:06:52;;;;;;;32.00;17.90;;;1.10;99.90;;;;;;5082063;28;20116;-81
2021/12/02 15:09:44;;;;;;;4.40;1.60;;;1.00;99.90;;;;;;5066224;28;20053;-81
2021/12/02 15:12:23;;;;;;;3.80;2.37;;;1.00;99.90;;;;;;5098322;28;20036;-81
2021/12/02 15:14:53;;;;;;;2.03;1.47;;;0.90;99.90;;;;;;5065798;28;20490;-80
2021/12/02 15:17:32;;;;;;;2.80;1.40;;;0.90;99.90;;;;;;5080414;28;20248;-81
2021/12/02 15:20:07;;;;;;;2.40;1.40;;;0.90;99.90;;;;;;5081735;28;20086;-81
2021/12/02 15:22:35;;;;;;;2.45;1.42;;;0.80;99.90;;;;;;5064527;28;20351;-82
2021/12/02 15:25:08;;;;;;;3.70;1.40;;;0.80;99.90;;;;;;5096563;28;20037;-81
2021/12/02 15:27:35;;;;;;;2.63;0.67;;;0.80;99.90;;;;;;5080228;28;20040;-80
2021/12/02 15:30:00;;;;;;;2.43;0.80;;;0.80;99.90;;;;;;5096312;28;20123;-80
2021/12/02 15:32:27;;;;;;;1.30;0.60;;;0.80;99.90;;;;;;5080679;28;20174;-80
2021/12/02 15:34:54;;;;;;;2.37;0.60;;;0.80;99.90;;;;;;5097153;28;20041;-81
2021/12/02 15:37:20;;;;;;;1.70;0.70;;;0.80;99.90;;;;;;5097790;28;20049;-81
2021/12/02 15:39:46;;;;;;;2.53;0.70;;;0.80;99.90;;;;;;5096528;28;20040;-79
2021/12/02 15:42:11;;;;;;;3.27;0.63;;;0.80;99.90;;;;;;5081673;28;20036;-81
2021/12/02 15:44:38;;;;;;;1.67;0.60;;;0.90;99.90;;;;;;5079689;28;20044;-80
2021/12/02 15:47:09;;;;;;;1.43;0.40;;;0.90;99.90;;;;;;5080869;28;20036;-80
2021/12/02 15:49:34;;;;;;;2.53;0.60;;;0.90;99.90;;;;;;5097252;28;20497;-80
2021/12/02 15:52:01;;;;;;;2.60;0.70;;;0.90;99.90;;;;;;5062932;28;20048;-81
2021/12/02 15:54:28;;;;;;;1.20;0.40;;;0.90;99.90;;;;;;5063158;28;20059;-80
2021/12/02 15:56:56;;;;;;;1.80;0.63;;;1.00;99.90;;;;;;5079697;28;20032;-80
2021/12/02 15:59:25;;;;;;;1.60;0.40;;;1.00;99.90;;;;;;5096544;28;20063;-81
2021/12/02 16:04:37;;;;;;;2.20;0.80;;;1.10;99.90;;;;;;5080235;28;20055;-80
2021/12/02 16:07:06;;;;;;;2.93;1.00;;;1.10;99.90;;;;;;5080293;28;20431;-80
2021/12/02 16:12:30;;;;;;;2.83;1.23;;;1.20;99.90;;;;;;5078622;28;20496;-80
2021/12/02 16:14:58;;;;;;;2.67;1.13;;;1.20;99.90;;;;;;5096766;28;20032;-80
2021/12/02 16:17:24;;;;;;;2.53;1.20;;;1.20;99.90;;;;;;5078157;28;20032;-81
2021/12/02 16:19:50;;;;;;;1.53;0.60;;;1.20;99.90;;;;;;5098470;28;20119;-80
2021/12/02 16:22:21;;;;;;;2.80;0.80;;;1.20;99.90;;;;;;5061958;28;20519;-81
2021/12/02 16:24:54;;;;;;;1.83;0.67;;;1.20;99.90;;;;;;5079848;28;20388;-80
2021/12/02 16:27:21;;;;;;;1.23;0.60;;;1.20;99.90;;;;;;5061766;28;20040;-81
2021/12/02 16:29:47;;;;;;;2.17;0.70;;;1.20;99.90;;;;;;5060828;28;20378;-81
2021/12/02 16:32:14;;;;;;;1.87;1.07;;;1.10;99.90;;;;;;5080814;28;20036;-81
2021/12/02 16:34:39;;;;;;;2.10;0.80;;;1.10;99.90;;;;;;5095231;28;20100;-82
2021/12/02 16:37:05;;;;;;;2.30;0.53;;;1.10;99.90;;;;;;5096927;28;20040;-81
2021/12/02 16:39:34;;;;;;;2.37;0.97;;;1.10;99.90;;;;;;5095289;28;20127;-81
2021/12/02 16:42:01;;;;;;;1.50;0.70;;;1.10;99.90;;;;;;5063496;28;20373;-81
2021/12/02 16:44:27;;;;;;;3.13;1.83;;;1.00;99.90;;;;;;5078089;28;20044;-81
2021/12/02 16:46:53;;;;;;;2.67;1.27;;;1.10;99.90;;;;;;5062421;28;20041;-80
2021/12/02 16:49:21;;;;;;;3.87;1.07;;;1.10;99.90;;;;;;5060428;28;20044;-81